Time;durP1;ratioP1;P1;durP2;ratioP2;P2;SDS_P1;SDS_P2;PMS_P1;PMS_P2;Temp;Humidity;BMP_temperature;BMP_pressure;BME280_temperature;BME280_humidity;BME280_pressure;Samples;Min_cycle;Max_cycle;Signal;HPM_P1;HPM_P2
2022/01/12 00:00:58;;;;;;;5.28;4.43;;;21.00;53.90;;;;;;5097887;28;20036;-73
2022/01/12 00:03:25;;;;;;;6.20;4.45;;;21.10;54.20;;;;;;5097691;28;20067;-73
2022/01/12 00:05:52;;;;;;;6.88;5.20;;;21.00;54.10;;;;;;5097634;28;20044;-73
2022/01/12 00:08:18;;;;;;;7.03;4.15;;;20.90;53.90;;;;;;5097595;28;20071;-73
2022/01/12 00:10:44;;;;;;;7.28;5.07;;;21.00;54.00;;;;;;5097517;28;20036;-73
2022/01/12 00:13:11;;;;;;;5.78;3.92;;;20.90;53.90;;;;;;5097223;28;20048;-74
2022/01/12 00:15:38;;;;;;;7.18;4.85;;;20.90;54.20;;;;;;5113574;28;20036;-73
2022/01/12 00:18:04;;;;;;;6.10;3.90;;;20.90;53.80;;;;;;5096690;28;20075;-74
2022/01/12 00:20:30;;;;;;;6.20;3.90;;;21.00;54.70;;;;;;5097421;28;20036;-74
2022/01/12 00:22:57;;;;;;;6.32;4.22;;;20.80;54.50;;;;;;5092820;28;20032;-73
2022/01/12 00:25:27;;;;;;;5.03;4.03;;;20.80;54.40;;;;;;5088651;28;20108;-74
2022/01/12 00:33:29;;;;;;;5.88;4.78;;;20.90;54.10;;;;;;5079713;28;20068;-73
2022/01/12 00:35:58;;;;;;;5.88;4.43;;;21.00;54.30;;;;;;5079421;28;20032;-74
2022/01/12 00:38:26;;;;;;;10.40;4.78;;;20.90;54.20;;;;;;5079719;28;20028;-74
2022/01/12 00:40:54;;;;;;;6.22;4.35;;;20.90;53.80;;;;;;5079850;28;20047;-74
2022/01/12 00:43:22;;;;;;;6.88;3.97;;;20.80;53.10;;;;;;5096387;28;20044;-74
2022/01/12 00:45:49;;;;;;;4.25;3.00;;;20.80;53.90;;;;;;5096335;28;20068;-74
2022/01/12 00:48:17;;;;;;;9.20;3.67;;;20.80;53.90;;;;;;5096955;28;20036;-74
2022/01/12 00:50:44;;;;;;;5.00;3.70;;;20.90;53.60;;;;;;5097154;28;20139;-74
2022/01/12 00:53:11;;;;;;;4.68;3.45;;;20.80;53.50;;;;;;5079292;28;20048;-74
2022/01/12 00:55:38;;;;;;;6.35;3.80;;;20.70;54.00;;;;;;5079430;28;20037;-74
2022/01/12 00:58:06;;;;;;;4.25;3.35;;;20.80;53.70;;;;;;5096811;28;20028;-73
2022/01/12 01:00:32;;;;;;;6.57;4.05;;;20.70;54.00;;;;;;5096072;28;20044;-74
2022/01/12 01:02:59;;;;;;;5.20;3.70;;;20.70;54.00;;;;;;5096528;28;20036;-74
2022/01/12 01:05:31;;;;;;;6.30;4.20;;;20.50;54.00;;;;;;5096487;28;20063;-74
2022/01/12 01:08:02;;;;;;;7.20;4.38;;;20.60;54.00;;;;;;5079391;28;20096;-74
2022/01/12 01:10:45;;;;;;;5.07;4.03;;;20.60;54.00;;;;;;5096200;28;20044;-73
2022/01/12 01:13:16;;;;;;;5.43;4.18;;;20.50;54.00;;;;;;5095914;28;20036;-74
2022/01/12 01:26:38;;;;;;;6.10;3.78;;;20.70;53.40;;;;;;5079004;28;20054;-74
2022/01/12 01:29:05;;;;;;;6.57;4.00;;;20.70;53.30;;;;;;5079260;28;20048;-73
2022/01/12 01:31:33;;;;;;;5.57;3.97;;;20.70;53.20;;;;;;5096460;28;20052;-74
2022/01/12 01:34:08;;;;;;;6.25;4.32;;;20.60;53.10;;;;;;5078557;28;20071;-73
2022/01/12 01:36:37;;;;;;;5.75;4.03;;;20.60;53.00;;;;;;5096452;28;20036;-73
2022/01/12 01:39:06;;;;;;;7.07;4.20;;;20.70;53.20;;;;;;5096741;28;20060;-73
2022/01/12 01:41:33;;;;;;;8.70;4.25;;;20.50;53.10;;;;;;5078893;28;20090;-73
2022/01/12 01:54:58;;;;;;;6.90;4.60;;;20.40;53.10;;;;;;5095908;28;20041;-74
2022/01/12 01:57:27;;;;;;;7.15;4.72;;;20.40;53.30;;;;;;5095481;28;20036;-74
2022/01/12 01:59:53;;;;;;;6.30;4.72;;;20.40;53.20;;;;;;5078852;28;20036;-73
2022/01/12 02:02:20;;;;;;;9.05;5.65;;;20.40;53.20;;;;;;5078794;28;20033;-73
2022/01/12 02:04:46;;;;;;;6.82;4.32;;;20.50;53.10;;;;;;5095545;28;20036;-73
2022/01/12 02:07:14;;;;;;;8.93;5.25;;;20.50;53.10;;;;;;5079122;28;20036;-74
2022/01/12 02:09:41;;;;;;;10.15;5.70;;;20.50;52.80;;;;;;5082453;28;20036;-73
2022/01/12 02:12:28;;;;;;;11.77;6.13;;;20.50;52.80;;;;;;5099582;28;20048;-75
2022/01/12 02:14:56;;;;;;;10.77;6.03;;;20.50;52.80;;;;;;5082423;28;20092;-73
2022/01/12 02:17:28;;;;;;;10.25;5.30;;;20.40;52.80;;;;;;5099036;28;20040;-73
2022/01/12 02:20:28;;;;;;;10.27;5.80;;;20.40;52.70;;;;;;5082440;28;20060;-74
2022/01/12 02:37:15;;;;;;;8.35;5.57;;;20.30;52.70;;;;;;5099451;28;20127;-73
2022/01/12 02:39:52;;;;;;;8.98;5.60;;;20.20;52.90;;;;;;5099620;28;20122;-74
2022/01/12 02:42:19;;;;;;;;;;;20.30;53.20;;;;;;5100050;28;20044;-74
2022/01/12 02:55:47;;;;;;;6.78;4.03;;;20.10;53.10;;;;;;5081874;28;20043;-74
2022/01/12 02:58:13;;;;;;;7.78;4.82;;;20.20;52.80;;;;;;5098949;28;20051;-74
2022/01/12 03:03:30;;;;;;;9.60;5.20;;;20.20;52.60;;;;;;5058261;28;20040;-74
2022/01/12 03:05:59;;;;;;;8.30;5.20;;;20.20;52.70;;;;;;5098904;28;20059;-73
2022/01/12 03:08:28;;;;;;;7.53;5.10;;;20.20;52.80;;;;;;5098831;28;20074;-73
2022/01/12 03:10:55;;;;;;;10.35;4.63;;;20.20;52.60;;;;;;5081390;28;20040;-74
2022/01/12 03:13:22;;;;;;;7.65;4.78;;;20.10;52.60;;;;;;5081524;28;20036;-74
2022/01/12 03:15:49;;;;;;;7.97;5.70;;;20.20;52.60;;;;;;5098924;28;20115;-74
2022/01/12 03:18:17;;;;;;;8.25;5.45;;;20.30;52.70;;;;;;5098454;28;20052;-74
2022/01/12 03:20:45;;;;;;;6.05;3.90;;;20.20;52.50;;;;;;5098459;28;20037;-74
2022/01/12 03:23:15;;;;;;;7.20;4.45;;;20.10;52.50;;;;;;5081248;28;20037;-74
2022/01/12 03:25:42;;;;;;;8.00;4.93;;;20.20;52.40;;;;;;5081335;28;20032;-73
2022/01/12 03:28:09;;;;;;;9.63;5.00;;;20.30;52.30;;;;;;5080828;28;20108;-74
2022/01/12 03:30:51;;;;;;;7.38;4.72;;;20.30;52.00;;;;;;5080617;28;20040;-73
2022/01/12 03:38:55;;;;;;;5.97;4.22;;;20.40;52.10;;;;;;5081338;28;20048;-73
2022/01/12 03:41:23;;;;;;;5.07;3.30;;;20.20;51.80;;;;;;5098363;28;20096;-73
2022/01/12 03:43:50;;;;;;;5.63;3.88;;;20.20;52.50;;;;;;5098230;28;20075;-74
2022/01/12 03:46:21;;;;;;;4.75;3.42;;;20.20;52.50;;;;;;5080849;28;20097;-74
2022/01/12 03:48:47;;;;;;;4.60;3.22;;;20.00;52.80;;;;;;5080204;28;20048;-73
2022/01/12 03:51:15;;;;;;;4.63;3.47;;;20.10;52.80;;;;;;5080495;28;20049;-74
2022/01/12 03:53:43;;;;;;;6.07;3.45;;;20.00;52.60;;;;;;5080370;28;20167;-73
2022/01/12 03:56:10;;;;;;;8.70;4.13;;;20.00;52.60;;;;;;5097963;28;20045;-73
2022/01/12 03:58:36;;;;;;;5.28;3.60;;;19.90;53.00;;;;;;5080474;28;20047;-73
2022/01/12 04:01:04;;;;;;;3.92;3.53;;;19.90;52.90;;;;;;5080431;28;20047;-74
2022/01/12 04:03:36;;;;;;;4.50;3.55;;;19.90;53.00;;;;;;5080446;28;20045;-73
2022/01/12 04:08:48;;;;;;;5.60;3.38;;;19.80;53.20;;;;;;5080148;28;20059;-73
2022/01/12 04:11:14;;;;;;;6.28;3.63;;;19.90;53.00;;;;;;5080517;28;20064;-73
2022/01/12 04:13:46;;;;;;;6.82;3.85;;;19.80;52.60;;;;;;5097442;28;20044;-74
2022/01/12 04:16:13;;;;;;;6.83;4.17;;;19.90;52.90;;;;;;5113837;28;20048;-73
2022/01/12 04:18:40;;;;;;;6.28;4.00;;;19.90;52.30;;;;;;5080151;28;20035;-73
2022/01/12 04:21:09;;;;;;;8.82;4.07;;;20.00;52.40;;;;;;5080393;28;20067;-73
2022/01/12 04:23:37;;;;;;;5.28;3.75;;;19.90;52.50;;;;;;5080152;28;20105;-73
2022/01/12 04:26:13;;;;;;;5.97;4.05;;;19.70;52.90;;;;;;5080246;28;20036;-73
2022/01/12 04:28:41;;;;;;;4.78;3.60;;;19.70;52.80;;;;;;5096983;28;20051;-73
2022/01/12 04:31:08;;;;;;;4.10;3.58;;;19.60;52.70;;;;;;5095926;28;20045;-73
2022/01/12 04:33:37;;;;;;;5.18;3.53;;;19.60;53.10;;;;;;5097236;28;20087;-73
2022/01/12 04:36:04;;;;;;;5.40;3.40;;;19.60;53.10;;;;;;5096519;28;20041;-73
2022/01/12 04:38:33;;;;;;;4.82;3.33;;;19.60;53.00;;;;;;5097098;28;20033;-74
2022/01/12 04:41:04;;;;;;;5.18;3.25;;;19.70;53.10;;;;;;5097225;28;20036;-74
2022/01/12 04:43:31;;;;;;;4.90;3.63;;;19.60;52.60;;;;;;5096954;28;20040;-73
2022/01/12 04:46:20;;;;;;;8.77;4.15;;;19.60;53.00;;;;;;5097154;28;20049;-74
2022/01/12 04:48:52;;;;;;;5.18;3.60;;;19.60;53.10;;;;;;5096160;28;20044;-73
2022/01/12 04:51:20;;;;;;;5.75;3.22;;;19.70;53.20;;;;;;5097128;28;20044;-74
2022/01/12 04:53:47;;;;;;;6.35;4.05;;;19.80;53.00;;;;;;5096901;28;20063;-74
2022/01/12 04:56:13;;;;;;;7.00;3.65;;;19.90;52.80;;;;;;5096906;28;20037;-74
2022/01/12 04:58:40;;;;;;;6.43;4.20;;;20.00;52.50;;;;;;5096521;28;20044;-74
2022/01/12 05:01:13;;;;;;;4.15;3.00;;;20.00;52.20;;;;;;5095509;28;20071;-74
2022/01/12 05:15:01;;;;;;;6.75;2.95;;;21.00;54.30;;;;;;5095760;28;20045;-74
2022/01/12 05:17:29;;;;;;;5.65;3.55;;;21.40;51.90;;;;;;5094947;28;20059;-76
2022/01/12 05:19:56;;;;;;;3.70;2.55;;;21.60;55.30;;;;;;5094829;28;20040;-76
2022/01/12 05:22:22;;;;;;;6.47;2.92;;;21.60;45.70;;;;;;5095728;28;20062;-78
2022/01/12 05:24:49;;;;;;;6.10;2.60;;;21.50;43.20;;;;;;5094792;28;20076;-76
2022/01/12 05:27:15;;;;;;;5.38;3.35;;;21.60;41.20;;;;;;5094363;28;20044;-75
2022/01/12 05:29:41;;;;;;;4.88;3.53;;;21.50;39.10;;;;;;5094767;28;20046;-74
2022/01/12 05:32:10;;;;;;;4.28;3.17;;;21.10;39.70;;;;;;5095643;28;20060;-74
2022/01/12 05:34:38;;;;;;;3.67;3.00;;;20.90;40.80;;;;;;5111994;28;20050;-73
2022/01/12 05:37:05;;;;;;;4.82;3.28;;;20.60;42.00;;;;;;5095135;28;20049;-74
2022/01/12 05:39:32;;;;;;;5.95;4.22;;;20.50;42.80;;;;;;5094783;28;20075;-73
2022/01/12 05:41:58;;;;;;;8.57;4.65;;;20.40;43.90;;;;;;5095032;28;20060;-73
2022/01/12 05:44:25;;;;;;;6.80;4.43;;;20.20;44.40;;;;;;5099129;28;20041;-73
2022/01/12 05:46:54;;;;;;;4.05;2.63;;;20.10;44.60;;;;;;5098930;28;20070;-75
2022/01/12 05:49:36;;;;;;;4.15;2.83;;;20.00;45.60;;;;;;5099103;28;20092;-74
2022/01/12 05:52:04;;;;;;;3.47;2.80;;;20.00;47.30;;;;;;5099391;28;20066;-73
2022/01/12 05:54:31;;;;;;;4.00;3.10;;;20.20;47.50;;;;;;5099076;28;20045;-75
2022/01/12 05:56:58;;;;;;;6.10;3.88;;;20.20;46.90;;;;;;5099086;28;20071;-73
2022/01/12 05:59:24;;;;;;;6.63;3.72;;;20.20;47.80;;;;;;5098819;28;20047;-73
2022/01/12 06:01:50;;;;;;;4.88;3.03;;;20.00;48.90;;;;;;5098642;28;20044;-72
2022/01/12 06:04:17;;;;;;;4.53;2.25;;;20.00;41.30;;;;;;5098991;28;20099;-73
2022/01/12 06:06:43;;;;;;;3.58;2.67;;;20.20;43.20;;;;;;5085834;28;20044;-73
2022/01/12 06:09:09;;;;;;;2.22;2.03;;;20.50;46.40;;;;;;5097537;28;20096;-72
2022/01/12 06:11:35;;;;;;;3.45;2.28;;;20.80;40.00;;;;;;5079187;28;20039;-72
2022/01/12 06:14:04;;;;;;;3.95;2.80;;;20.90;35.50;;;;;;5080671;28;20028;-72
2022/01/12 06:16:33;;;;;;;2.30;1.95;;;20.90;37.60;;;;;;5080730;28;20066;-71
2022/01/12 06:18:59;;;;;;;2.00;1.67;;;20.80;36.80;;;;;;5080701;28;20040;-72
2022/01/12 06:21:27;;;;;;;6.32;3.50;;;20.90;37.80;;;;;;5080753;28;20047;-73
2022/01/12 06:24:08;;;;;;;6.78;4.00;;;20.90;36.70;;;;;;5078543;28;20120;-73
2022/01/12 06:26:36;;;;;;;4.45;2.95;;;21.00;33.70;;;;;;5098120;28;20046;-72
2022/01/12 06:29:27;;;;;;;5.10;3.58;;;21.10;33.90;;;;;;5098041;28;20040;-73
2022/01/12 06:31:53;;;;;;;5.22;3.13;;;21.20;34.30;;;;;;5064075;28;20070;-73
2022/01/12 06:34:20;;;;;;;3.70;2.35;;;21.20;37.70;;;;;;5080734;28;20044;-72
2022/01/12 06:36:47;;;;;;;6.10;3.65;;;21.10;34.80;;;;;;5098439;28;20050;-72
2022/01/12 06:39:17;;;;;;;11.45;3.05;;;21.20;35.40;;;;;;5080683;28;20104;-73
2022/01/12 06:41:44;;;;;;;5.57;4.30;;;21.20;36.60;;;;;;5094908;28;20077;-72
2022/01/12 06:44:16;;;;;;;5.55;3.28;;;21.20;36.30;;;;;;5098689;28;20123;-72
2022/01/12 06:46:44;;;;;;;5.75;3.20;;;21.20;50.80;;;;;;5080787;28;20051;-74
2022/01/12 06:49:12;;;;;;;4.95;3.72;;;21.40;54.90;;;;;;5083468;28;20044;-76
2022/01/12 06:51:39;;;;;;;4.97;3.45;;;21.30;53.40;;;;;;5105883;28;20044;-77
2022/01/12 06:54:07;;;;;;;4.97;3.70;;;21.10;53.90;;;;;;5077731;28;20076;-77
2022/01/12 06:56:33;;;;;;;10.85;4.15;;;20.90;54.60;;;;;;5077822;28;20033;-77
2022/01/12 06:59:00;;;;;;;4.13;2.80;;;21.00;55.50;;;;;;5061073;28;20048;-77
2022/01/12 07:01:26;;;;;;;5.57;3.55;;;20.80;55.90;;;;;;5060953;28;20033;-78
2022/01/12 07:03:53;;;;;;;6.43;3.72;;;20.70;56.70;;;;;;5062314;28;20059;-76
2022/01/12 07:06:20;;;;;;;6.38;3.85;;;20.70;57.30;;;;;;5101079;28;20043;-77
2022/01/12 07:08:46;;;;;;;5.13;3.72;;;20.60;57.60;;;;;;5101046;28;20044;-75
2022/01/12 07:11:23;;;;;;;4.50;3.50;;;20.60;58.00;;;;;;5100739;28;20043;-78
2022/01/12 07:13:53;;;;;;;5.93;3.45;;;20.60;58.00;;;;;;5100859;28;20051;-82
2022/01/12 07:16:19;;;;;;;7.10;4.00;;;20.50;58.60;;;;;;5101053;28;20027;-78
2022/01/12 07:18:45;;;;;;;8.43;4.13;;;20.40;58.80;;;;;;5084187;28;20067;-75
2022/01/12 07:21:12;;;;;;;6.25;4.30;;;20.50;60.50;;;;;;5097669;28;20044;-77
2022/01/12 07:23:38;;;;;;;6.70;3.92;;;20.50;58.90;;;;;;5097925;28;20059;-76
2022/01/12 07:26:05;;;;;;;5.30;3.70;;;20.50;60.10;;;;;;5097640;28;20060;-76
2022/01/12 07:28:31;;;;;;;5.90;3.53;;;20.40;60.80;;;;;;5097939;28;20072;-75
2022/01/12 07:30:57;;;;;;;6.97;4.13;;;20.60;60.40;;;;;;5097445;28;20067;-79
2022/01/12 07:33:25;;;;;;;6.18;4.32;;;20.50;59.60;;;;;;5097536;28;20040;-76
2022/01/12 07:35:53;;;;;;;5.75;4.22;;;20.40;60.00;;;;;;5097686;28;20036;-79
2022/01/12 07:38:19;;;;;;;7.13;4.22;;;20.30;60.90;;;;;;5080345;28;20048;-75
2022/01/12 07:40:45;;;;;;;4.88;3.78;;;20.30;61.50;;;;;;5097329;28;20070;-74
2022/01/12 07:43:11;;;;;;;7.38;4.10;;;20.20;61.10;;;;;;5097357;28;20052;-76
2022/01/12 07:45:38;;;;;;;5.85;3.78;;;20.20;61.40;;;;;;5097479;28;20123;-77
2022/01/12 07:48:04;;;;;;;7.15;4.88;;;20.20;62.00;;;;;;5097562;28;20036;-76
2022/01/12 07:50:30;;;;;;;5.95;4.00;;;20.20;61.90;;;;;;5097312;28;20033;-76
2022/01/12 07:52:57;;;;;;;8.77;4.95;;;20.40;62.10;;;;;;5097046;28;20037;-74
2022/01/12 07:55:24;;;;;;;7.00;5.25;;;20.20;62.00;;;;;;5097273;28;20036;-75
2022/01/12 07:57:51;;;;;;;10.10;5.13;;;20.30;62.90;;;;;;5097273;28;20036;-74
2022/01/12 08:00:18;;;;;;;7.85;5.05;;;20.10;62.60;;;;;;5097051;28;20037;-75
2022/01/12 08:02:44;;;;;;;7.40;4.25;;;20.20;64.50;;;;;;5097316;28;20036;-75
2022/01/12 08:05:11;;;;;;;9.68;5.82;;;20.20;62.80;;;;;;5078597;28;20033;-75
2022/01/12 08:07:39;;;;;;;7.95;5.15;;;20.20;62.40;;;;;;5096664;28;20077;-74
2022/01/12 08:10:07;;;;;;;6.18;4.80;;;20.10;62.30;;;;;;5097060;28;20051;-73
2022/01/12 08:12:34;;;;;;;10.32;5.10;;;20.20;61.60;;;;;;5096931;28;20074;-73
2022/01/12 08:15:02;;;;;;;11.20;5.20;;;20.00;59.80;;;;;;5096666;28;20044;-73
2022/01/12 08:17:29;;;;;;;4.72;3.90;;;20.00;60.10;;;;;;5097049;28;20036;-73
2022/01/12 08:19:57;;;;;;;8.32;4.95;;;20.10;59.20;;;;;;5097004;28;20036;-73
2022/01/12 08:22:23;;;;;;;9.63;5.68;;;20.00;58.70;;;;;;5096743;28;20102;-73
2022/01/12 08:24:50;;;;;;;7.55;5.28;;;19.90;59.50;;;;;;5096749;28;20037;-73
2022/01/12 08:27:16;;;;;;;6.70;4.50;;;20.00;61.20;;;;;;5096849;28;20046;-73
2022/01/12 08:29:42;;;;;;;8.30;4.55;;;20.10;62.00;;;;;;5096620;28;20036;-73
2022/01/12 08:32:08;;;;;;;8.50;5.25;;;20.00;62.70;;;;;;5096324;28;20047;-73
2022/01/12 08:34:34;;;;;;;6.75;4.53;;;20.20;62.40;;;;;;5096340;28;20040;-72
2022/01/12 08:37:01;;;;;;;6.43;4.90;;;20.20;62.00;;;;;;5096337;28;20070;-72
2022/01/12 08:39:27;;;;;;;7.68;5.22;;;20.40;60.00;;;;;;5096622;28;20104;-73
2022/01/12 08:41:53;;;;;;;8.52;6.13;;;20.40;59.70;;;;;;5095989;28;20028;-74
2022/01/12 08:44:20;;;;;;;7.72;4.07;;;20.20;59.20;;;;;;5096303;28;20044;-75
2022/01/12 08:46:46;;;;;;;7.72;5.00;;;20.30;60.00;;;;;;5096369;28;20043;-74
2022/01/12 08:49:12;;;;;;;11.13;5.18;;;20.40;54.60;;;;;;5096142;28;20049;-75
2022/01/12 08:51:38;;;;;;;8.02;5.68;;;20.60;54.20;;;;;;5096161;28;20039;-74
2022/01/12 08:54:05;;;;;;;7.53;4.70;;;20.70;54.10;;;;;;5096149;28;20102;-74
2022/01/12 08:56:32;;;;;;;8.95;6.18;;;20.70;55.60;;;;;;5096228;28;20108;-77
2022/01/12 08:58:58;;;;;;;7.00;4.07;;;20.70;56.50;;;;;;5096135;28;20041;-75
2022/01/12 09:01:24;;;;;;;11.68;5.13;;;20.70;57.80;;;;;;5096149;28;20028;-73
2022/01/12 09:03:50;;;;;;;7.95;4.43;;;20.50;48.10;;;;;;5095915;28;20086;-74
2022/01/12 09:06:17;;;;;;;6.65;4.03;;;20.30;55.90;;;;;;5096194;28;20056;-73
2022/01/12 09:08:44;;;;;;;6.00;2.95;;;20.20;53.00;;;;;;5081044;28;20779;-73
2022/01/12 09:11:12;;;;;;;7.30;3.72;;;20.30;56.70;;;;;;5075598;28;20070;-75
2022/01/12 09:13:41;;;;;;;0.95;0.95;;;20.40;57.50;;;;;;5074928;28;20067;-77
2022/01/12 09:16:08;;;;;;;3.38;2.10;;;20.50;54.70;;;;;;5056863;28;20245;-78
2022/01/12 09:18:37;;;;;;;6.57;4.57;;;20.80;52.10;;;;;;5075087;28;20052;-72
2022/01/12 09:21:03;;;;;;;8.68;5.35;;;21.00;39.70;;;;;;5075549;28;20104;-74
2022/01/12 09:23:30;;;;;;;13.15;6.75;;;21.00;34.40;;;;;;5075411;28;20175;-74
2022/01/12 09:25:57;;;;;;;6.55;4.00;;;21.00;33.30;;;;;;5075657;28;20033;-72
2022/01/12 09:28:23;;;;;;;9.57;6.05;;;21.10;34.20;;;;;;5075765;28;20045;-72
2022/01/12 09:30:51;;;;;;;8.73;5.15;;;21.30;32.90;;;;;;5075214;28;20048;-74
2022/01/12 09:33:18;;;;;;;6.88;4.90;;;21.30;31.90;;;;;;5074740;28;20044;-74
2022/01/12 09:35:46;;;;;;;6.00;2.80;;;21.40;30.90;;;;;;5075071;28;20043;-73
2022/01/12 09:38:12;;;;;;;6.45;3.75;;;21.60;34.00;;;;;;5074104;28;20067;-74
2022/01/12 09:40:41;;;;;;;5.70;3.83;;;21.50;44.00;;;;;;5074627;28;20128;-74
2022/01/12 09:43:07;;;;;;;9.75;3.53;;;21.60;44.40;;;;;;5075539;28;20105;-73
2022/01/12 09:45:33;;;;;;;7.70;4.65;;;21.50;45.40;;;;;;5075419;28;20096;-76
2022/01/12 09:47:59;;;;;;;6.03;3.72;;;21.50;44.90;;;;;;5075495;28;20128;-75
2022/01/12 09:50:26;;;;;;;6.82;3.90;;;21.50;45.40;;;;;;5075446;28;20037;-74
2022/01/12 09:52:53;;;;;;;4.78;3.05;;;21.40;47.50;;;;;;5075262;28;20456;-75
2022/01/12 09:55:20;;;;;;;5.72;2.88;;;21.40;47.70;;;;;;5075239;28;20044;-75
2022/01/12 09:57:46;;;;;;;7.05;3.33;;;21.60;43.90;;;;;;5075380;28;20052;-75
2022/01/12 10:00:15;;;;;;;4.65;3.95;;;21.70;37.00;;;;;;5075344;28;20041;-75
2022/01/12 10:02:42;;;;;;;5.22;3.30;;;21.70;34.00;;;;;;5075462;28;20040;-75
2022/01/12 10:05:09;;;;;;;4.68;2.97;;;21.90;36.30;;;;;;5075336;28;20047;-74
2022/01/12 10:07:36;;;;;;;4.63;3.58;;;22.00;34.40;;;;;;5074991;28;20033;-73
2022/01/12 10:10:08;;;;;;;2.58;2.13;;;22.00;31.90;;;;;;5075216;28;20052;-73
2022/01/12 10:12:34;;;;;;;2.70;2.13;;;22.00;33.80;;;;;;5075685;28;20065;-73
2022/01/12 10:15:09;;;;;;;3.83;3.20;;;22.20;34.80;;;;;;5077458;28;20072;-72
2022/01/12 10:17:37;;;;;;;4.20;2.33;;;22.10;28.20;;;;;;5077371;28;20041;-71
2022/01/12 10:20:13;;;;;;;5.82;3.13;;;22.10;28.40;;;;;;5094686;28;20127;-72
2022/01/12 10:23:02;;;;;;;3.08;2.47;;;22.20;29.10;;;;;;5095045;28;20036;-72
2022/01/12 10:25:29;;;;;;;5.82;2.28;;;22.10;28.50;;;;;;5094917;28;20036;-72
2022/01/12 10:27:57;;;;;;;3.67;2.13;;;22.10;29.20;;;;;;5077301;28;20063;-73
2022/01/12 10:30:25;;;;;;;4.40;2.53;;;22.30;30.50;;;;;;5098596;28;20044;-72
2022/01/12 10:33:11;;;;;;;4.63;2.22;;;22.30;29.40;;;;;;5098695;28;20052;-74
2022/01/12 10:35:41;;;;;;;3.25;2.20;;;22.30;31.70;;;;;;5098602;28;20048;-73
2022/01/12 10:38:13;;;;;;;6.57;2.63;;;22.40;31.10;;;;;;5097746;28;20074;-73
2022/01/12 10:41:03;;;;;;;3.88;2.65;;;22.40;31.50;;;;;;5098381;28;20048;-74
2022/01/12 10:43:31;;;;;;;4.47;2.67;;;22.50;33.50;;;;;;5089065;28;20051;-75
2022/01/12 10:45:59;;;;;;;3.42;2.53;;;22.50;31.40;;;;;;5098380;28;20048;-76
2022/01/12 10:48:31;;;;;;;1.65;1.27;;;22.60;33.70;;;;;;5098205;28;20083;-76
2022/01/12 10:50:59;;;;;;;4.53;2.47;;;22.50;33.30;;;;;;5098571;28;20040;-75
2022/01/12 10:53:33;;;;;;;5.15;2.72;;;22.70;31.80;;;;;;5098434;28;20291;-77
2022/01/12 10:56:17;;;;;;;2.53;1.85;;;22.70;33.10;;;;;;5098270;28;20032;-75
2022/01/12 10:58:46;;;;;;;3.20;1.73;;;22.70;31.30;;;;;;5098650;28;20063;-76
2022/01/12 11:01:15;;;;;;;3.53;1.77;;;22.90;30.90;;;;;;5098239;28;20063;-75
2022/01/12 11:03:43;;;;;;;3.17;2.20;;;22.80;35.10;;;;;;5098162;28;20044;-73
2022/01/12 11:06:10;;;;;;;4.03;2.28;;;22.90;42.30;;;;;;5097799;28;20041;-74
2022/01/12 11:08:37;;;;;;;4.38;2.30;;;22.90;45.20;;;;;;5081065;28;20050;-75
2022/01/12 11:11:04;;;;;;;3.88;2.63;;;22.90;44.60;;;;;;5097590;28;20040;-75
2022/01/12 11:13:32;;;;;;;8.18;2.33;;;22.60;44.70;;;;;;5097946;28;20044;-75
2022/01/12 11:15:59;;;;;;;3.28;1.58;;;22.70;46.50;;;;;;5114061;28;20039;-74
2022/01/12 11:18:28;;;;;;;4.10;2.35;;;22.50;48.50;;;;;;5114387;28;20075;-75
2022/01/12 11:21:24;;;;;;;3.78;2.20;;;22.50;48.90;;;;;;5080622;28;20048;-75
2022/01/12 11:23:51;;;;;;;3.83;2.47;;;22.50;47.60;;;;;;5097764;28;20040;-75
2022/01/12 11:26:24;;;;;;;2.97;2.08;;;22.40;48.00;;;;;;5097738;28;20103;-74
2022/01/12 11:28:52;;;;;;;2.08;1.60;;;22.50;48.00;;;;;;5097705;28;20044;-73
2022/01/12 11:31:27;;;;;;;3.97;1.92;;;22.40;47.90;;;;;;5097659;28;20056;-74
2022/01/12 11:33:54;;;;;;;3.25;1.58;;;22.40;50.50;;;;;;5097558;28;20063;-73
2022/01/12 11:36:27;;;;;;;4.82;1.52;;;22.40;49.80;;;;;;5080016;28;20070;-74
2022/01/12 11:39:10;;;;;;;3.00;1.52;;;22.30;51.10;;;;;;5097345;28;20044;-74
2022/01/12 11:41:39;;;;;;;1.67;1.27;;;22.40;50.10;;;;;;5097199;28;20037;-75
2022/01/12 11:44:15;;;;;;;1.20;1.10;;;22.40;51.20;;;;;;5096851;28;20036;-75
2022/01/12 11:46:47;;;;;;;3.08;1.88;;;22.40;50.70;;;;;;5097544;28;20065;-75
2022/01/12 11:49:28;;;;;;;3.75;1.48;;;22.60;48.00;;;;;;5097503;28;20084;-74
2022/01/12 11:51:56;;;;;;;3.45;2.08;;;22.60;49.20;;;;;;5097241;28;20040;-74
2022/01/12 11:54:33;;;;;;;2.65;1.77;;;22.60;49.10;;;;;;5094855;28;20062;-73
2022/01/12 11:57:03;;;;;;;2.80;1.65;;;22.60;51.50;;;;;;5079965;28;20040;-75
2022/01/12 11:59:49;;;;;;;1.70;1.40;;;22.60;49.70;;;;;;5097258;28;20040;-73
2022/01/12 12:02:16;;;;;;;4.07;1.77;;;22.50;51.10;;;;;;5097305;28;20059;-74
2022/01/12 12:04:55;;;;;;;4.15;2.05;;;22.70;47.80;;;;;;5096649;28;20050;-75
2022/01/12 12:07:25;;;;;;;6.40;2.38;;;22.60;54.30;;;;;;5097016;28;20046;-73
2022/01/12 12:09:57;;;;;;;2.20;1.60;;;22.50;52.40;;;;;;5096987;28;20091;-74
2022/01/12 12:12:31;;;;;;;2.22;1.58;;;22.40;52.00;;;;;;5096238;28;20064;-74
2022/01/12 12:15:00;;;;;;;2.83;1.83;;;22.50;50.50;;;;;;5096084;28;20100;-73
2022/01/12 12:17:31;;;;;;;2.28;1.77;;;22.50;52.30;;;;;;5096072;28;20037;-75
2022/01/12 12:19:58;;;;;;;4.88;2.10;;;22.50;52.40;;;;;;5096795;28;20049;-75
2022/01/12 12:22:30;;;;;;;1.77;1.42;;;22.50;53.00;;;;;;5096844;28;20033;-75
2022/01/12 12:25:02;;;;;;;2.63;2.10;;;22.60;53.60;;;;;;5096485;28;20052;-77
2022/01/12 12:27:30;;;;;;;3.08;2.13;;;22.50;50.80;;;;;;5078960;28;20066;-76
2022/01/12 12:29:56;;;;;;;3.35;2.05;;;22.60;51.10;;;;;;5095472;28;20517;-75
2022/01/12 12:32:44;;;;;;;8.38;2.40;;;22.50;53.70;;;;;;5095680;28;20061;-74
2022/01/12 12:35:14;;;;;;;3.47;1.33;;;22.60;52.60;;;;;;5096194;28;20054;-74
2022/01/12 12:37:44;;;;;;;3.90;2.20;;;22.60;52.30;;;;;;5096429;28;20070;-73
2022/01/12 12:40:23;;;;;;;2.65;2.25;;;22.60;52.60;;;;;;5096284;28;20071;-73
2022/01/12 12:43:05;;;;;;;2.47;1.50;;;22.70;51.00;;;;;;5079103;28;20048;-73
2022/01/12 12:45:45;;;;;;;2.55;1.65;;;22.70;51.40;;;;;;5078107;28;20040;-73
2022/01/12 12:48:14;;;;;;;2.53;2.00;;;22.60;52.50;;;;;;5094678;28;20123;-73
2022/01/12 12:50:41;;;;;;;1.60;1.50;;;22.60;51.70;;;;;;5095343;28;20044;-73
2022/01/12 12:53:08;;;;;;;2.60;1.85;;;22.80;53.00;;;;;;5095837;28;20059;-73
2022/01/12 12:55:40;;;;;;;3.10;2.10;;;22.80;52.70;;;;;;5095947;28;20051;-71
2022/01/12 12:58:07;;;;;;;5.43;1.88;;;22.90;51.20;;;;;;5095056;28;20037;-73
2022/01/12 13:00:34;;;;;;;4.35;2.35;;;22.90;52.80;;;;;;5096218;28;20067;-73
2022/01/12 13:03:03;;;;;;;3.47;2.25;;;23.00;50.00;;;;;;5094557;28;20032;-73
2022/01/12 13:05:35;;;;;;;2.72;1.48;;;22.90;52.20;;;;;;5095646;28;20068;-73
2022/01/12 13:08:02;;;;;;;2.58;1.90;;;22.90;51.00;;;;;;5095547;28;20054;-73
2022/01/12 13:10:32;;;;;;;1.95;1.55;;;22.90;51.70;;;;;;5095095;28;20159;-73
2022/01/12 13:13:08;;;;;;;2.17;1.65;;;22.90;50.90;;;;;;5094620;28;20033;-73
2022/01/12 13:15:36;;;;;;;3.17;1.67;;;23.00;51.60;;;;;;5094188;28;20043;-73
2022/01/12 13:18:06;;;;;;;2.92;1.67;;;22.90;50.40;;;;;;5094443;28;20101;-73
2022/01/12 13:23:25;;;;;;;0.68;0.68;;;22.90;52.10;;;;;;5095695;28;20032;-73
2022/01/12 13:25:56;;;;;;;4.78;2.53;;;22.90;52.80;;;;;;5095817;28;20052;-73
2022/01/12 13:28:23;;;;;;;3.72;2.00;;;22.90;51.80;;;;;;5095669;28;20052;-73
2022/01/12 13:31:05;;;;;;;4.35;1.77;;;22.90;51.90;;;;;;5095565;28;20066;-72
2022/01/12 13:33:39;;;;;;;5.07;2.05;;;22.90;52.10;;;;;;5095812;28;20150;-73
2022/01/12 13:36:22;;;;;;;3.85;2.08;;;22.70;52.40;;;;;;5095941;28;20070;-73
2022/01/12 13:38:58;;;;;;;4.03;2.10;;;22.80;52.60;;;;;;5095849;28;20036;-73
2022/01/12 13:41:28;;;;;;;3.22;2.05;;;22.60;49.00;;;;;;5095056;28;20040;-72
2022/01/12 13:44:08;;;;;;;3.30;1.73;;;22.20;51.90;;;;;;5094529;28;20040;-73
2022/01/12 13:47:03;;;;;;;3.80;1.95;;;22.20;49.20;;;;;;5095414;28;20054;-72
2022/01/12 13:49:29;;;;;;;5.68;1.73;;;22.00;52.90;;;;;;5095403;28;20066;-73
2022/01/12 13:52:01;;;;;;;3.22;1.92;;;21.90;52.80;;;;;;5095526;28;20055;-73
2022/01/12 13:54:33;;;;;;;2.97;2.00;;;22.40;54.30;;;;;;5095476;28;20080;-72
2022/01/12 13:57:00;;;;;;;4.97;1.98;;;22.50;53.50;;;;;;5095431;28;20047;-72
2022/01/12 13:59:29;;;;;;;3.08;1.95;;;22.40;52.50;;;;;;5095228;28;20100;-73
2022/01/12 14:01:59;;;;;;;4.22;1.80;;;22.10;53.00;;;;;;5077681;28;20059;-74
2022/01/12 14:07:01;;;;;;;3.55;2.38;;;22.00;52.50;;;;;;5099420;28;20046;-72
2022/01/12 14:09:40;;;;;;;6.25;3.05;;;22.10;51.20;;;;;;5099253;28;20044;-73
2022/01/12 14:12:18;;;;;;;16.02;4.85;;;21.90;51.20;;;;;;5099006;28;20040;-73
2022/01/12 14:14:54;;;;;;;18.27;5.80;;;21.90;54.50;;;;;;5064937;28;20048;-73
2022/01/12 14:17:27;;;;;;;3.40;1.70;;;21.80;52.90;;;;;;5099031;28;20079;-73